Woodsville, New Hampshire
Current Conditions -  °F | °C
As of 5:51 AM on Wednesday 22 Oct 2014 (Local Time) from KMPV Reporting Station
Overcast Overcast  
Wind Chill: 43°   Ceiling: 1500
Heat Index: 45°   Visibility: 9mi
Dew Point: 44°   Wind: 5mph
Humidity: 97%   Direction: 350°N
Pressure: 30.15"   Gusts: NA
Location:  44.15°N, 72.04°W
Report Text: KMPV 220951Z AUTO 35004KT 9SM OVC015 07/07 A3015 RMK AO2 RAB0852E40 SLP217 P0001 T00720067
Loading
Personal Weather Stations






























Interactive Weather Map
Tropical Storm Tracking
New forecast layout! Learn more

10-Day Weather Forecast

Advertisements
Track Severe Weather on mobile